sensor_id;sensor_type;location;lat;lon;timestamp;P1;durP1;ratioP1;P2;durP2;ratioP2
18748;SDS011;9503;53.560;10.246;2023-03-23T00:02:26;13.13;;;5.57;;
18748;SDS011;9503;53.560;10.246;2023-03-23T00:04:56;8.00;;;5.63;;
18748;SDS011;9503;53.560;10.246;2023-03-23T00:07:22;9.93;;;5.70;;
18748;SDS011;9503;53.560;10.246;2023-03-23T00:09:52;10.87;;;5.80;;
18748;SDS011;9503;53.560;10.246;2023-03-23T00:12:20;12.87;;;6.73;;
18748;SDS011;9503;53.560;10.246;2023-03-23T00:14:58;10.70;;;6.60;;
18748;SDS011;9503;53.560;10.246;2023-03-23T00:17:25;17.20;;;7.17;;
18748;SDS011;9503;53.560;10.246;2023-03-23T00:19:52;15.40;;;8.80;;
18748;SDS011;9503;53.560;10.246;2023-03-23T00:22:20;11.97;;;8.37;;
18748;SDS011;9503;53.560;10.246;2023-03-23T00:24:50;15.20;;;8.83;;
18748;SDS011;9503;53.560;10.246;2023-03-23T00:27:17;14.93;;;8.17;;
18748;SDS011;9503;53.560;10.246;2023-03-23T00:29:46;12.60;;;7.67;;
18748;SDS011;9503;53.560;10.246;2023-03-23T00:32:20;13.63;;;8.10;;
18748;SDS011;9503;53.560;10.246;2023-03-23T00:34:52;14.13;;;8.00;;
18748;SDS011;9503;53.560;10.246;2023-03-23T00:37:19;13.47;;;9.17;;
18748;SDS011;9503;53.560;10.246;2023-03-23T00:39:47;15.53;;;9.53;;
18748;SDS011;9503;53.560;10.246;2023-03-23T00:42:16;17.03;;;9.77;;
18748;SDS011;9503;53.560;10.246;2023-03-23T00:44:44;18.83;;;9.67;;
18748;SDS011;9503;53.560;10.246;2023-03-23T00:47:10;15.53;;;9.97;;
18748;SDS011;9503;53.560;10.246;2023-03-23T00:49:38;20.30;;;10.80;;
18748;SDS011;9503;53.560;10.246;2023-03-23T00:52:06;17.30;;;10.97;;
18748;SDS011;9503;53.560;10.246;2023-03-23T00:54:35;20.63;;;11.43;;
18748;SDS011;9503;53.560;10.246;2023-03-23T00:57:02;20.10;;;12.17;;
18748;SDS011;9503;53.560;10.246;2023-03-23T00:59:29;22.43;;;11.33;;
18748;SDS011;9503;53.560;10.246;2023-03-23T01:01:56;24.67;;;12.27;;
18748;SDS011;9503;53.560;10.246;2023-03-23T01:04:23;21.03;;;12.07;;
18748;SDS011;9503;53.560;10.246;2023-03-23T01:06:50;19.53;;;12.07;;
18748;SDS011;9503;53.560;10.246;2023-03-23T01:09:17;19.57;;;11.97;;
18748;SDS011;9503;53.560;10.246;2023-03-23T01:11:47;22.33;;;12.30;;
18748;SDS011;9503;53.560;10.246;2023-03-23T01:14:16;20.77;;;12.03;;
18748;SDS011;9503;53.560;10.246;2023-03-23T01:16:44;20.93;;;12.23;;
18748;SDS011;9503;53.560;10.246;2023-03-23T01:19:11;22.00;;;12.73;;
18748;SDS011;9503;53.560;10.246;2023-03-23T01:21:37;21.20;;;12.07;;
18748;SDS011;9503;53.560;10.246;2023-03-23T01:24:05;19.30;;;11.20;;
18748;SDS011;9503;53.560;10.246;2023-03-23T01:26:32;21.87;;;12.00;;
18748;SDS011;9503;53.560;10.246;2023-03-23T01:29:00;20.53;;;11.30;;
18748;SDS011;9503;53.560;10.246;2023-03-23T01:31:27;22.87;;;12.03;;
18748;SDS011;9503;53.560;10.246;2023-03-23T01:33:54;23.13;;;11.60;;
18748;SDS011;9503;53.560;10.246;2023-03-23T01:36:22;17.63;;;10.37;;
18748;SDS011;9503;53.560;10.246;2023-03-23T01:38:51;23.50;;;11.27;;
18748;SDS011;9503;53.560;10.246;2023-03-23T01:41:19;19.83;;;11.00;;
18748;SDS011;9503;53.560;10.246;2023-03-23T01:43:59;18.93;;;11.17;;
18748;SDS011;9503;53.560;10.246;2023-03-23T01:46:30;21.30;;;12.43;;
18748;SDS011;9503;53.560;10.246;2023-03-23T01:48:58;20.53;;;11.90;;
18748;SDS011;9503;53.560;10.246;2023-03-23T01:51:31;22.73;;;11.70;;
18748;SDS011;9503;53.560;10.246;2023-03-23T01:54:03;18.73;;;10.73;;
18748;SDS011;9503;53.560;10.246;2023-03-23T01:56:34;19.57;;;11.73;;
18748;SDS011;9503;53.560;10.246;2023-03-23T01:59:07;20.90;;;11.63;;
18748;SDS011;9503;53.560;10.246;2023-03-23T02:01:35;19.23;;;12.07;;
18748;SDS011;9503;53.560;10.246;2023-03-23T02:04:05;21.57;;;12.17;;
18748;SDS011;9503;53.560;10.246;2023-03-23T02:06:37;18.43;;;10.73;;
18748;SDS011;9503;53.560;10.246;2023-03-23T02:09:03;23.97;;;12.03;;
18748;SDS011;9503;53.560;10.246;2023-03-23T02:11:31;18.57;;;11.77;;
18748;SDS011;9503;53.560;10.246;2023-03-23T02:13:58;18.23;;;11.57;;
18748;SDS011;9503;53.560;10.246;2023-03-23T02:16:30;19.47;;;10.87;;
18748;SDS011;9503;53.560;10.246;2023-03-23T02:19:22;19.93;;;11.20;;
18748;SDS011;9503;53.560;10.246;2023-03-23T02:22:20;20.37;;;12.60;;
18748;SDS011;9503;53.560;10.246;2023-03-23T02:25:11;18.77;;;12.33;;
18748;SDS011;9503;53.560;10.246;2023-03-23T02:28:13;17.00;;;11.60;;
18748;SDS011;9503;53.560;10.246;2023-03-23T02:31:01;18.27;;;11.57;;
18748;SDS011;9503;53.560;10.246;2023-03-23T02:33:45;19.50;;;11.67;;
18748;SDS011;9503;53.560;10.246;2023-03-23T02:36:18;19.50;;;11.60;;
18748;SDS011;9503;53.560;10.246;2023-03-23T02:38:53;19.53;;;11.90;;
18748;SDS011;9503;53.560;10.246;2023-03-23T02:41:25;17.97;;;11.57;;
18748;SDS011;9503;53.560;10.246;2023-03-23T02:43:57;17.43;;;11.70;;
18748;SDS011;9503;53.560;10.246;2023-03-23T02:46:24;21.67;;;13.27;;
18748;SDS011;9503;53.560;10.246;2023-03-23T02:48:54;18.57;;;12.33;;
18748;SDS011;9503;53.560;10.246;2023-03-23T02:51:23;20.20;;;12.93;;
18748;SDS011;9503;53.560;10.246;2023-03-23T02:53:51;20.23;;;13.07;;
18748;SDS011;9503;53.560;10.246;2023-03-23T02:56:23;22.07;;;12.67;;
18748;SDS011;9503;53.560;10.246;2023-03-23T02:58:53;18.37;;;12.20;;
18748;SDS011;9503;53.560;10.246;2023-03-23T03:04:27;19.87;;;12.40;;
18748;SDS011;9503;53.560;10.246;2023-03-23T03:10:06;20.23;;;12.87;;
18748;SDS011;9503;53.560;10.246;2023-03-23T03:12:44;16.50;;;12.43;;
18748;SDS011;9503;53.560;10.246;2023-03-23T03:15:20;19.40;;;12.43;;
18748;SDS011;9503;53.560;10.246;2023-03-23T03:17:53;19.43;;;12.50;;
18748;SDS011;9503;53.560;10.246;2023-03-23T03:20:29;18.67;;;11.67;;
18748;SDS011;9503;53.560;10.246;2023-03-23T03:22:58;18.93;;;12.77;;
18748;SDS011;9503;53.560;10.246;2023-03-23T03:25:26;20.73;;;12.60;;
18748;SDS011;9503;53.560;10.246;2023-03-23T03:27:54;20.77;;;13.47;;
18748;SDS011;9503;53.560;10.246;2023-03-23T03:30:23;20.67;;;13.13;;
18748;SDS011;9503;53.560;10.246;2023-03-23T03:32:55;20.00;;;12.03;;
18748;SDS011;9503;53.560;10.246;2023-03-23T03:35:25;18.07;;;12.23;;
18748;SDS011;9503;53.560;10.246;2023-03-23T03:37:54;18.63;;;11.67;;
18748;SDS011;9503;53.560;10.246;2023-03-23T03:40:21;19.77;;;12.33;;
18748;SDS011;9503;53.560;10.246;2023-03-23T03:42:49;19.07;;;12.87;;
18748;SDS011;9503;53.560;10.246;2023-03-23T03:45:17;15.60;;;10.70;;
18748;SDS011;9503;53.560;10.246;2023-03-23T03:47:44;17.20;;;11.20;;
18748;SDS011;9503;53.560;10.246;2023-03-23T03:50:11;20.37;;;12.07;;
18748;SDS011;9503;53.560;10.246;2023-03-23T03:52:38;19.23;;;12.43;;
18748;SDS011;9503;53.560;10.246;2023-03-23T03:55:07;20.57;;;12.27;;
18748;SDS011;9503;53.560;10.246;2023-03-23T03:57:35;23.43;;;12.00;;
18748;SDS011;9503;53.560;10.246;2023-03-23T04:00:02;18.23;;;12.60;;
18748;SDS011;9503;53.560;10.246;2023-03-23T04:02:39;17.20;;;12.60;;
18748;SDS011;9503;53.560;10.246;2023-03-23T04:05:06;16.97;;;12.33;;
18748;SDS011;9503;53.560;10.246;2023-03-23T04:07:35;20.47;;;13.77;;
18748;SDS011;9503;53.560;10.246;2023-03-23T04:10:03;22.40;;;13.37;;
18748;SDS011;9503;53.560;10.246;2023-03-23T04:12:32;21.30;;;13.23;;
18748;SDS011;9503;53.560;10.246;2023-03-23T04:14:58;20.57;;;13.73;;
18748;SDS011;9503;53.560;10.246;2023-03-23T04:17:25;20.40;;;13.73;;
18748;SDS011;9503;53.560;10.246;2023-03-23T04:19:52;19.40;;;13.53;;
18748;SDS011;9503;53.560;10.246;2023-03-23T04:22:21;21.93;;;14.77;;
18748;SDS011;9503;53.560;10.246;2023-03-23T04:24:49;21.37;;;13.97;;
18748;SDS011;9503;53.560;10.246;2023-03-23T04:27:16;19.07;;;13.97;;
18748;SDS011;9503;53.560;10.246;2023-03-23T04:29:44;22.73;;;13.43;;
18748;SDS011;9503;53.560;10.246;2023-03-23T04:32:13;22.73;;;14.87;;
18748;SDS011;9503;53.560;10.246;2023-03-23T04:34:42;19.97;;;13.43;;
18748;SDS011;9503;53.560;10.246;2023-03-23T04:37:09;21.40;;;14.27;;
18748;SDS011;9503;53.560;10.246;2023-03-23T04:39:35;21.53;;;16.13;;
18748;SDS011;9503;53.560;10.246;2023-03-23T04:42:04;19.83;;;14.57;;
18748;SDS011;9503;53.560;10.246;2023-03-23T04:44:31;23.80;;;15.07;;
18748;SDS011;9503;53.560;10.246;2023-03-23T04:47:01;23.40;;;15.50;;
18748;SDS011;9503;53.560;10.246;2023-03-23T04:49:28;20.07;;;14.13;;
18748;SDS011;9503;53.560;10.246;2023-03-23T04:51:54;18.00;;;14.07;;
18748;SDS011;9503;53.560;10.246;2023-03-23T04:54:21;21.80;;;14.50;;
18748;SDS011;9503;53.560;10.246;2023-03-23T04:56:49;25.33;;;14.90;;
18748;SDS011;9503;53.560;10.246;2023-03-23T04:59:16;21.63;;;13.93;;
18748;SDS011;9503;53.560;10.246;2023-03-23T05:01:42;21.73;;;13.67;;
18748;SDS011;9503;53.560;10.246;2023-03-23T05:04:11;21.10;;;15.03;;
18748;SDS011;9503;53.560;10.246;2023-03-23T05:06:41;21.23;;;15.30;;
18748;SDS011;9503;53.560;10.246;2023-03-23T05:09:09;22.93;;;14.33;;
18748;SDS011;9503;53.560;10.246;2023-03-23T05:11:36;21.40;;;14.80;;
18748;SDS011;9503;53.560;10.246;2023-03-23T05:14:03;25.63;;;15.07;;
18748;SDS011;9503;53.560;10.246;2023-03-23T05:16:30;18.83;;;14.77;;
18748;SDS011;9503;53.560;10.246;2023-03-23T05:18:57;18.53;;;14.40;;
18748;SDS011;9503;53.560;10.246;2023-03-23T05:21:25;20.33;;;14.27;;
18748;SDS011;9503;53.560;10.246;2023-03-23T05:23:51;18.20;;;14.07;;
18748;SDS011;9503;53.560;10.246;2023-03-23T05:26:21;19.80;;;14.33;;
18748;SDS011;9503;53.560;10.246;2023-03-23T05:28:50;18.83;;;13.63;;
18748;SDS011;9503;53.560;10.246;2023-03-23T05:31:18;17.33;;;12.50;;
18748;SDS011;9503;53.560;10.246;2023-03-23T05:33:45;16.63;;;12.43;;
18748;SDS011;9503;53.560;10.246;2023-03-23T05:36:11;19.03;;;13.17;;
18748;SDS011;9503;53.560;10.246;2023-03-23T05:38:41;16.40;;;11.50;;
18748;SDS011;9503;53.560;10.246;2023-03-23T05:41:10;15.33;;;11.20;;
18748;SDS011;9503;53.560;10.246;2023-03-23T05:43:37;15.70;;;10.87;;
18748;SDS011;9503;53.560;10.246;2023-03-23T05:46:04;17.53;;;10.33;;
18748;SDS011;9503;53.560;10.246;2023-03-23T05:48:30;14.23;;;9.90;;
18748;SDS011;9503;53.560;10.246;2023-03-23T05:50:58;17.80;;;10.03;;
18748;SDS011;9503;53.560;10.246;2023-03-23T05:53:24;17.13;;;10.90;;
18748;SDS011;9503;53.560;10.246;2023-03-23T05:55:52;15.93;;;10.03;;
18748;SDS011;9503;53.560;10.246;2023-03-23T05:58:19;11.53;;;8.37;;
18748;SDS011;9503;53.560;10.246;2023-03-23T06:00:45;14.40;;;9.17;;
18748;SDS011;9503;53.560;10.246;2023-03-23T06:03:12;14.10;;;8.43;;
18748;SDS011;9503;53.560;10.246;2023-03-23T06:05:41;13.53;;;7.97;;
18748;SDS011;9503;53.560;10.246;2023-03-23T06:08:10;10.83;;;7.77;;
18748;SDS011;9503;53.560;10.246;2023-03-23T06:10:37;11.97;;;7.90;;
18748;SDS011;9503;53.560;10.246;2023-03-23T06:13:05;11.33;;;7.70;;
18748;SDS011;9503;53.560;10.246;2023-03-23T06:15:32;10.27;;;7.17;;
18748;SDS011;9503;53.560;10.246;2023-03-23T06:17:59;9.30;;;6.83;;
18748;SDS011;9503;53.560;10.246;2023-03-23T06:20:26;9.17;;;6.50;;
18748;SDS011;9503;53.560;10.246;2023-03-23T06:22:52;9.80;;;6.03;;
18748;SDS011;9503;53.560;10.246;2023-03-23T06:25:19;8.33;;;5.60;;
18748;SDS011;9503;53.560;10.246;2023-03-23T06:27:46;7.83;;;5.73;;
18748;SDS011;9503;53.560;10.246;2023-03-23T06:30:14;10.05;;;5.95;;
18748;SDS011;9503;53.560;10.246;2023-03-23T06:32:41;7.53;;;4.93;;
18748;SDS011;9503;53.560;10.246;2023-03-23T06:35:11;7.27;;;5.50;;
18748;SDS011;9503;53.560;10.246;2023-03-23T06:37:38;8.20;;;5.43;;
18748;SDS011;9503;53.560;10.246;2023-03-23T06:40:05;7.47;;;5.00;;
18748;SDS011;9503;53.560;10.246;2023-03-23T06:42:33;7.20;;;4.80;;
18748;SDS011;9503;53.560;10.246;2023-03-23T06:45:00;7.87;;;4.70;;
18748;SDS011;9503;53.560;10.246;2023-03-23T06:47:29;5.80;;;4.57;;
18748;SDS011;9503;53.560;10.246;2023-03-23T06:49:56;6.93;;;4.53;;
18748;SDS011;9503;53.560;10.246;2023-03-23T06:52:23;5.27;;;4.50;;
18748;SDS011;9503;53.560;10.246;2023-03-23T06:54:50;6.77;;;4.10;;
18748;SDS011;9503;53.560;10.246;2023-03-23T06:57:18;7.83;;;4.10;;
18748;SDS011;9503;53.560;10.246;2023-03-23T06:59:45;4.27;;;3.83;;
18748;SDS011;9503;53.560;10.246;2023-03-23T07:02:12;6.27;;;3.63;;
18748;SDS011;9503;53.560;10.246;2023-03-23T07:04:41;6.00;;;3.80;;
18748;SDS011;9503;53.560;10.246;2023-03-23T07:07:09;5.17;;;3.73;;
18748;SDS011;9503;53.560;10.246;2023-03-23T07:09:39;6.57;;;3.60;;
18748;SDS011;9503;53.560;10.246;2023-03-23T07:12:06;4.63;;;3.50;;
18748;SDS011;9503;53.560;10.246;2023-03-23T07:14:33;6.50;;;4.00;;
18748;SDS011;9503;53.560;10.246;2023-03-23T07:17:00;8.37;;;4.13;;
18748;SDS011;9503;53.560;10.246;2023-03-23T07:19:26;9.73;;;3.87;;
18748;SDS011;9503;53.560;10.246;2023-03-23T07:21:54;5.63;;;4.07;;
18748;SDS011;9503;53.560;10.246;2023-03-23T07:24:22;5.50;;;3.53;;
18748;SDS011;9503;53.560;10.246;2023-03-23T07:26:49;4.47;;;3.60;;
18748;SDS011;9503;53.560;10.246;2023-03-23T07:29:16;7.27;;;3.77;;
18748;SDS011;9503;53.560;10.246;2023-03-23T07:31:42;7.37;;;3.70;;
18748;SDS011;9503;53.560;10.246;2023-03-23T07:34:09;9.70;;;3.50;;
18748;SDS011;9503;53.560;10.246;2023-03-23T07:36:36;4.30;;;3.20;;
18748;SDS011;9503;53.560;10.246;2023-03-23T07:39:04;4.27;;;3.50;;
18748;SDS011;9503;53.560;10.246;2023-03-23T07:41:31;6.27;;;3.40;;
18748;SDS011;9503;53.560;10.246;2023-03-23T07:43:58;5.67;;;3.57;;
18748;SDS011;9503;53.560;10.246;2023-03-23T07:46:25;4.10;;;3.70;;
18748;SDS011;9503;53.560;10.246;2023-03-23T07:48:51;5.10;;;3.20;;
18748;SDS011;9503;53.560;10.246;2023-03-23T07:51:18;6.13;;;3.40;;
18748;SDS011;9503;53.560;10.246;2023-03-23T07:53:46;4.80;;;3.37;;
18748;SDS011;9503;53.560;10.246;2023-03-23T07:56:14;4.83;;;3.00;;
18748;SDS011;9503;53.560;10.246;2023-03-23T07:58:43;6.20;;;3.60;;
18748;SDS011;9503;53.560;10.246;2023-03-23T08:01:10;4.37;;;3.50;;
18748;SDS011;9503;53.560;10.246;2023-03-23T08:03:37;8.17;;;3.63;;
18748;SDS011;9503;53.560;10.246;2023-03-23T08:06:04;5.23;;;3.83;;
18748;SDS011;9503;53.560;10.246;2023-03-23T08:08:32;6.07;;;3.77;;
18748;SDS011;9503;53.560;10.246;2023-03-23T08:10:58;5.20;;;3.90;;
18748;SDS011;9503;53.560;10.246;2023-03-23T08:13:26;7.33;;;4.23;;
18748;SDS011;9503;53.560;10.246;2023-03-23T08:15:54;5.07;;;3.40;;
18748;SDS011;9503;53.560;10.246;2023-03-23T08:18:21;7.50;;;3.90;;
18748;SDS011;9503;53.560;10.246;2023-03-23T08:20:48;4.47;;;4.07;;
18748;SDS011;9503;53.560;10.246;2023-03-23T08:23:15;4.47;;;4.07;;
18748;SDS011;9503;53.560;10.246;2023-03-23T08:25:42;5.00;;;3.77;;
18748;SDS011;9503;53.560;10.246;2023-03-23T08:28:09;5.40;;;3.83;;
18748;SDS011;9503;53.560;10.246;2023-03-23T08:30:37;5.73;;;4.53;;
18748;SDS011;9503;53.560;10.246;2023-03-23T08:33:05;5.10;;;4.43;;
18748;SDS011;9503;53.560;10.246;2023-03-23T08:35:33;5.80;;;5.00;;
18748;SDS011;9503;53.560;10.246;2023-03-23T08:38:00;6.67;;;4.93;;
18748;SDS011;9503;53.560;10.246;2023-03-23T08:40:28;6.67;;;5.10;;
18748;SDS011;9503;53.560;10.246;2023-03-23T08:42:55;6.83;;;5.40;;
18748;SDS011;9503;53.560;10.246;2023-03-23T08:45:23;5.40;;;4.80;;
18748;SDS011;9503;53.560;10.246;2023-03-23T08:47:53;5.73;;;5.17;;
18748;SDS011;9503;53.560;10.246;2023-03-23T08:50:21;6.93;;;4.67;;
18748;SDS011;9503;53.560;10.246;2023-03-23T08:52:50;7.30;;;4.63;;
18748;SDS011;9503;53.560;10.246;2023-03-23T08:55:18;7.03;;;5.03;;
18748;SDS011;9503;53.560;10.246;2023-03-23T08:57:45;6.30;;;5.47;;
18748;SDS011;9503;53.560;10.246;2023-03-23T09:00:13;6.60;;;5.57;;
18748;SDS011;9503;53.560;10.246;2023-03-23T09:02:45;6.10;;;4.97;;
18748;SDS011;9503;53.560;10.246;2023-03-23T09:05:14;6.83;;;4.20;;
18748;SDS011;9503;53.560;10.246;2023-03-23T09:07:43;5.20;;;4.10;;
18748;SDS011;9503;53.560;10.246;2023-03-23T09:10:12;6.67;;;3.60;;
18748;SDS011;9503;53.560;10.246;2023-03-23T09:12:40;6.93;;;3.20;;
18748;SDS011;9503;53.560;10.246;2023-03-23T09:15:08;5.60;;;2.70;;
18748;SDS011;9503;53.560;10.246;2023-03-23T09:17:38;4.70;;;2.60;;
18748;SDS011;9503;53.560;10.246;2023-03-23T09:20:07;9.33;;;2.63;;
18748;SDS011;9503;53.560;10.246;2023-03-23T09:22:38;4.03;;;2.33;;
18748;SDS011;9503;53.560;10.246;2023-03-23T09:25:05;4.60;;;2.10;;
18748;SDS011;9503;53.560;10.246;2023-03-23T09:27:33;6.63;;;2.10;;
18748;SDS011;9503;53.560;10.246;2023-03-23T09:30:01;10.70;;;1.90;;
18748;SDS011;9503;53.560;10.246;2023-03-23T09:32:31;5.97;;;2.07;;
18748;SDS011;9503;53.560;10.246;2023-03-23T09:34:59;8.33;;;2.37;;
18748;SDS011;9503;53.560;10.246;2023-03-23T09:37:26;4.77;;;2.13;;
18748;SDS011;9503;53.560;10.246;2023-03-23T09:39:54;5.53;;;2.10;;
18748;SDS011;9503;53.560;10.246;2023-03-23T09:42:29;4.50;;;2.43;;
18748;SDS011;9503;53.560;10.246;2023-03-23T09:45:09;5.97;;;2.40;;
18748;SDS011;9503;53.560;10.246;2023-03-23T09:47:44;10.13;;;2.50;;
18748;SDS011;9503;53.560;10.246;2023-03-23T09:50:21;7.37;;;2.50;;
18748;SDS011;9503;53.560;10.246;2023-03-23T09:52:53;6.20;;;2.60;;
18748;SDS011;9503;53.560;10.246;2023-03-23T09:55:24;6.67;;;2.60;;
18748;SDS011;9503;53.560;10.246;2023-03-23T09:57:54;8.83;;;2.60;;
18748;SDS011;9503;53.560;10.246;2023-03-23T10:00:26;9.70;;;2.73;;
18748;SDS011;9503;53.560;10.246;2023-03-23T10:02:59;8.43;;;2.50;;
18748;SDS011;9503;53.560;10.246;2023-03-23T10:05:32;11.43;;;2.47;;
18748;SDS011;9503;53.560;10.246;2023-03-23T10:08:01;5.97;;;2.13;;
18748;SDS011;9503;53.560;10.246;2023-03-23T10:10:36;9.33;;;2.47;;
18748;SDS011;9503;53.560;10.246;2023-03-23T10:13:14;10.30;;;2.33;;
18748;SDS011;9503;53.560;10.246;2023-03-23T10:15:46;9.57;;;2.67;;
18748;SDS011;9503;53.560;10.246;2023-03-23T10:18:15;12.37;;;2.97;;
18748;SDS011;9503;53.560;10.246;2023-03-23T10:20:47;6.87;;;2.20;;
18748;SDS011;9503;53.560;10.246;2023-03-23T10:23:31;10.27;;;2.37;;
18748;SDS011;9503;53.560;10.246;2023-03-23T10:26:12;14.07;;;3.40;;
18748;SDS011;9503;53.560;10.246;2023-03-23T10:28:50;11.13;;;2.60;;
18748;SDS011;9503;53.560;10.246;2023-03-23T10:31:20;9.33;;;2.40;;
18748;SDS011;9503;53.560;10.246;2023-03-23T10:33:50;9.33;;;2.40;;
18748;SDS011;9503;53.560;10.246;2023-03-23T10:36:21;9.77;;;2.60;;
18748;SDS011;9503;53.560;10.246;2023-03-23T10:38:54;8.93;;;2.90;;
18748;SDS011;9503;53.560;10.246;2023-03-23T10:41:26;13.47;;;3.03;;
18748;SDS011;9503;53.560;10.246;2023-03-23T10:43:53;9.63;;;2.90;;
18748;SDS011;9503;53.560;10.246;2023-03-23T10:46:22;6.77;;;2.57;;
18748;SDS011;9503;53.560;10.246;2023-03-23T10:48:56;6.97;;;2.80;;
18748;SDS011;9503;53.560;10.246;2023-03-23T10:51:27;12.57;;;2.97;;
18748;SDS011;9503;53.560;10.246;2023-03-23T10:53:58;11.90;;;2.93;;
18748;SDS011;9503;53.560;10.246;2023-03-23T10:56:29;8.97;;;2.47;;
18748;SDS011;9503;53.560;10.246;2023-03-23T10:59:11;9.50;;;3.20;;
18748;SDS011;9503;53.560;10.246;2023-03-23T11:01:42;5.20;;;2.00;;
18748;SDS011;9503;53.560;10.246;2023-03-23T11:04:12;9.50;;;2.57;;
18748;SDS011;9503;53.560;10.246;2023-03-23T11:06:42;8.73;;;2.83;;
18748;SDS011;9503;53.560;10.246;2023-03-23T11:09:11;13.87;;;3.37;;
18748;SDS011;9503;53.560;10.246;2023-03-23T11:11:42;17.20;;;3.53;;
18748;SDS011;9503;53.560;10.246;2023-03-23T11:14:15;11.80;;;3.20;;
18748;SDS011;9503;53.560;10.246;2023-03-23T11:16:44;11.80;;;2.93;;
18748;SDS011;9503;53.560;10.246;2023-03-23T11:19:20;12.23;;;2.70;;
18748;SDS011;9503;53.560;10.246;2023-03-23T11:21:50;11.83;;;3.10;;
18748;SDS011;9503;53.560;10.246;2023-03-23T11:24:20;10.10;;;2.60;;
18748;SDS011;9503;53.560;10.246;2023-03-23T11:26:49;9.73;;;2.73;;
18748;SDS011;9503;53.560;10.246;2023-03-23T11:29:18;11.50;;;2.80;;
18748;SDS011;9503;53.560;10.246;2023-03-23T11:31:48;12.80;;;3.00;;
18748;SDS011;9503;53.560;10.246;2023-03-23T11:34:18;9.93;;;2.93;;
18748;SDS011;9503;53.560;10.246;2023-03-23T11:36:47;12.77;;;2.60;;
18748;SDS011;9503;53.560;10.246;2023-03-23T11:39:19;15.23;;;3.80;;
18748;SDS011;9503;53.560;10.246;2023-03-23T11:41:49;11.13;;;2.77;;
18748;SDS011;9503;53.560;10.246;2023-03-23T11:44:16;13.63;;;3.13;;
18748;SDS011;9503;53.560;10.246;2023-03-23T11:46:48;8.97;;;3.00;;
18748;SDS011;9503;53.560;10.246;2023-03-23T11:49:25;12.30;;;3.23;;
18748;SDS011;9503;53.560;10.246;2023-03-23T11:52:00;18.43;;;3.43;;
18748;SDS011;9503;53.560;10.246;2023-03-23T11:54:32;15.87;;;3.33;;
18748;SDS011;9503;53.560;10.246;2023-03-23T11:57:05;12.03;;;3.27;;
18748;SDS011;9503;53.560;10.246;2023-03-23T11:59:33;9.30;;;3.17;;
18748;SDS011;9503;53.560;10.246;2023-03-23T12:02:05;10.93;;;3.53;;
18748;SDS011;9503;53.560;10.246;2023-03-23T12:04:50;14.00;;;3.00;;
18748;SDS011;9503;53.560;10.246;2023-03-23T12:07:30;10.57;;;3.03;;
18748;SDS011;9503;53.560;10.246;2023-03-23T12:10:12;14.47;;;3.50;;
18748;SDS011;9503;53.560;10.246;2023-03-23T12:12:50;13.97;;;3.07;;
18748;SDS011;9503;53.560;10.246;2023-03-23T12:15:22;15.27;;;3.87;;
18748;SDS011;9503;53.560;10.246;2023-03-23T12:17:56;12.67;;;3.23;;
18748;SDS011;9503;53.560;10.246;2023-03-23T12:20:34;10.53;;;3.07;;
18748;SDS011;9503;53.560;10.246;2023-03-23T12:23:17;6.07;;;3.00;;
18748;SDS011;9503;53.560;10.246;2023-03-23T12:25:59;8.03;;;2.80;;
18748;SDS011;9503;53.560;10.246;2023-03-23T12:28:43;8.30;;;2.90;;
18748;SDS011;9503;53.560;10.246;2023-03-23T12:31:23;11.17;;;3.13;;
18748;SDS011;9503;53.560;10.246;2023-03-23T12:33:55;5.73;;;3.07;;
18748;SDS011;9503;53.560;10.246;2023-03-23T12:36:35;6.30;;;3.50;;
18748;SDS011;9503;53.560;10.246;2023-03-23T12:42:14;10.33;;;3.00;;
18748;SDS011;9503;53.560;10.246;2023-03-23T12:44:48;11.97;;;3.60;;
18748;SDS011;9503;53.560;10.246;2023-03-23T12:47:21;9.07;;;3.30;;
18748;SDS011;9503;53.560;10.246;2023-03-23T12:49:56;11.57;;;3.67;;
18748;SDS011;9503;53.560;10.246;2023-03-23T12:52:28;11.37;;;4.00;;
18748;SDS011;9503;53.560;10.246;2023-03-23T12:55:02;7.10;;;3.70;;
18748;SDS011;9503;53.560;10.246;2023-03-23T12:57:34;7.97;;;3.43;;
18748;SDS011;9503;53.560;10.246;2023-03-23T13:00:12;11.27;;;3.47;;
18748;SDS011;9503;53.560;10.246;2023-03-23T13:02:47;11.77;;;3.10;;
18748;SDS011;9503;53.560;10.246;2023-03-23T13:05:29;9.70;;;3.20;;
18748;SDS011;9503;53.560;10.246;2023-03-23T13:08:02;11.77;;;3.23;;
18748;SDS011;9503;53.560;10.246;2023-03-23T13:10:33;10.13;;;3.30;;
18748;SDS011;9503;53.560;10.246;2023-03-23T13:13:04;10.77;;;3.60;;
18748;SDS011;9503;53.560;10.246;2023-03-23T13:15:37;11.33;;;3.57;;
18748;SDS011;9503;53.560;10.246;2023-03-23T13:18:16;6.10;;;3.47;;
18748;SDS011;9503;53.560;10.246;2023-03-23T13:20:58;8.90;;;3.43;;
18748;SDS011;9503;53.560;10.246;2023-03-23T13:23:32;9.50;;;3.33;;
18748;SDS011;9503;53.560;10.246;2023-03-23T13:26:05;9.37;;;3.10;;
18748;SDS011;9503;53.560;10.246;2023-03-23T13:28:48;8.50;;;3.30;;
18748;SDS011;9503;53.560;10.246;2023-03-23T13:31:22;9.97;;;3.20;;
18748;SDS011;9503;53.560;10.246;2023-03-23T13:33:57;10.43;;;3.60;;
18748;SDS011;9503;53.560;10.246;2023-03-23T13:36:27;10.48;;;3.33;;
18748;SDS011;9503;53.560;10.246;2023-03-23T13:38:56;10.45;;;3.08;;
18748;SDS011;9503;53.560;10.246;2023-03-23T13:41:25;10.33;;;3.47;;
18748;SDS011;9503;53.560;10.246;2023-03-23T13:43:52;12.97;;;3.20;;
18748;SDS011;9503;53.560;10.246;2023-03-23T13:46:32;10.83;;;3.20;;
18748;SDS011;9503;53.560;10.246;2023-03-23T13:51:56;7.00;;;2.70;;
18748;SDS011;9503;53.560;10.246;2023-03-23T13:54:30;8.67;;;3.90;;
18748;SDS011;9503;53.560;10.246;2023-03-23T13:56:58;6.37;;;2.67;;
18748;SDS011;9503;53.560;10.246;2023-03-23T13:59:29;6.23;;;2.63;;
18748;SDS011;9503;53.560;10.246;2023-03-23T14:05:09;4.47;;;2.37;;
18748;SDS011;9503;53.560;10.246;2023-03-23T14:07:52;5.27;;;2.30;;
18748;SDS011;9503;53.560;10.246;2023-03-23T14:10:20;8.53;;;2.20;;
18748;SDS011;9503;53.560;10.246;2023-03-23T14:12:49;5.47;;;2.20;;
18748;SDS011;9503;53.560;10.246;2023-03-23T14:15:18;4.13;;;2.50;;
18748;SDS011;9503;53.560;10.246;2023-03-23T14:17:47;3.43;;;2.00;;
18748;SDS011;9503;53.560;10.246;2023-03-23T14:20:24;5.33;;;2.13;;
18748;SDS011;9503;53.560;10.246;2023-03-23T14:22:57;7.30;;;2.50;;
18748;SDS011;9503;53.560;10.246;2023-03-23T14:25:26;2.37;;;1.93;;
18748;SDS011;9503;53.560;10.246;2023-03-23T14:27:55;3.70;;;2.17;;
18748;SDS011;9503;53.560;10.246;2023-03-23T14:30:22;8.93;;;1.93;;
18748;SDS011;9503;53.560;10.246;2023-03-23T14:32:52;3.83;;;2.07;;
18748;SDS011;9503;53.560;10.246;2023-03-23T14:35:22;3.43;;;1.50;;
18748;SDS011;9503;53.560;10.246;2023-03-23T14:37:52;4.27;;;1.87;;
18748;SDS011;9503;53.560;10.246;2023-03-23T14:40:22;4.20;;;1.70;;
18748;SDS011;9503;53.560;10.246;2023-03-23T14:42:53;3.03;;;1.80;;
18748;SDS011;9503;53.560;10.246;2023-03-23T14:45:21;3.63;;;1.53;;
18748;SDS011;9503;53.560;10.246;2023-03-23T14:47:51;4.47;;;1.70;;
18748;SDS011;9503;53.560;10.246;2023-03-23T14:50:23;1.60;;;1.47;;
18748;SDS011;9503;53.560;10.246;2023-03-23T14:52:53;3.93;;;1.63;;
18748;SDS011;9503;53.560;10.246;2023-03-23T14:55:23;4.67;;;1.90;;
18748;SDS011;9503;53.560;10.246;2023-03-23T14:57:52;3.30;;;2.00;;
18748;SDS011;9503;53.560;10.246;2023-03-23T15:00:20;3.60;;;2.50;;
18748;SDS011;9503;53.560;10.246;2023-03-23T15:02:49;9.27;;;2.47;;
18748;SDS011;9503;53.560;10.246;2023-03-23T15:05:20;4.67;;;2.03;;
18748;SDS011;9503;53.560;10.246;2023-03-23T15:07:51;6.13;;;2.30;;
18748;SDS011;9503;53.560;10.246;2023-03-23T15:10:20;8.17;;;2.60;;